Vernon, Louisiana
Current Conditions -  °F | °C
As of 6:15 PM on Friday 21 Nov 2014 (Local Time) from KRSN Reporting Station
Overcast Overcast  
Wind Chill: 63°   Ceiling: 7000
Heat Index: 63°   Visibility: 10mi
Dew Point: 49°   Wind: 3mph
Humidity: 61%   Direction: 140°SE
Pressure: 30.25"   Gusts: NA
Location:  32.5075°N, 92.6828°W
Report Text: KRSN 220015Z AUTO 14003KT 10SM BKN070 OVC090 17/10 A3025 RMK AO2 T01710095
Loading
Personal Weather Stations






























Interactive Weather Map New forecast layout! Learn more

10-Day Weather Forecast

Advertisements
Track Severe Weather on mobile